createdAt,value
2023-09-08T00:01:42.737Z,99957.19
2023-09-08T00:04:13.332Z,99960.81
2023-09-08T00:06:42.268Z,99962.31
2023-09-08T00:09:09.375Z,99955.50
2023-09-08T00:11:36.746Z,99957.03
2023-09-08T00:14:09.330Z,99952.13
2023-09-08T00:16:40.808Z,99952.56
2023-09-08T00:19:18.188Z,99959.22
2023-09-08T00:21:53.804Z,99954.31
2023-09-08T00:24:37.809Z,99949.63
2023-09-08T00:27:12.765Z,99947.97
2023-09-08T00:29:43.249Z,99953.78
2023-09-08T00:32:16.414Z,99944.53
2023-09-08T00:34:49.947Z,99943.72
2023-09-08T00:37:20.526Z,99942.06
2023-09-08T00:39:50.892Z,99941.47
2023-09-08T00:42:19.307Z,99943.31
2023-09-08T00:44:50.347Z,99938.78
2023-09-08T00:47:24.005Z,99934.59
2023-09-08T00:49:55.382Z,99938.13
2023-09-08T00:52:36.078Z,99939.53
2023-09-08T00:55:12.802Z,99942.22
2023-09-08T00:57:44.640Z,99936.25
2023-09-08T01:00:13.841Z,99937.28
2023-09-08T01:02:49.101Z,99938.78
2023-09-08T01:05:21.363Z,99938.97
2023-09-08T01:07:59.553Z,99931.75
2023-09-08T01:10:36.495Z,99930.34
2023-09-08T01:13:10.642Z,99935.94
2023-09-08T01:15:41.158Z,99926.00
2023-09-08T01:18:12.546Z,99933.25
2023-09-08T01:21:17.431Z,99927.28
2023-09-08T01:24:03.297Z,99926.91
2023-09-08T01:26:47.414Z,99921.63
2023-09-08T01:29:19.734Z,99929.09
2023-09-08T01:31:55.193Z,99929.41
2023-09-08T01:34:27.951Z,99923.69
2023-09-08T01:41:32.876Z,99917.81
2023-09-08T01:44:02.391Z,99920.34
2023-09-08T01:46:31.074Z,99922.88
2023-09-08T01:49:00.004Z,99919.81
2023-09-08T01:51:58.081Z,99919.44
2023-09-08T01:54:27.574Z,99922.81
2023-09-08T01:57:19.663Z,99935.41
2023-09-08T01:59:53.277Z,99927.19
2023-09-08T02:02:24.615Z,99926.38
2023-09-08T02:04:52.788Z,99927.66
2023-09-08T02:07:20.753Z,99925.66
2023-09-08T02:09:53.848Z,99935.19
2023-09-08T02:12:23.381Z,99934.00
2023-09-08T02:14:58.851Z,99932.34
2023-09-08T02:17:27.862Z,99939.22
2023-09-08T02:20:06.214Z,99929.97
2023-09-08T02:22:34.831Z,99926.09
2023-09-08T02:25:08.152Z,99927.56
2023-09-08T02:27:41.388Z,99929.03
2023-09-08T02:30:16.706Z,99926.00
2023-09-08T02:32:55.990Z,99928.88
2023-09-08T02:35:26.823Z,99931.41
2023-09-08T02:37:57.072Z,99927.94
2023-09-08T02:40:30.775Z,99930.28
2023-09-08T02:43:05.460Z,99927.50
2023-09-08T02:45:40.192Z,99933.47
2023-09-08T02:48:10.011Z,99933.09
2023-09-08T02:50:40.444Z,99929.81
2023-09-08T02:53:12.311Z,99929.81
2023-09-08T02:55:42.945Z,99932.72
2023-09-08T02:58:16.005Z,99932.94
2023-09-08T03:00:52.731Z,99928.03
2023-09-08T03:03:21.554Z,99927.19
2023-09-08T03:06:05.903Z,99926.56
2023-09-08T03:08:47.086Z,99927.63
2023-09-08T03:11:19.730Z,99923.72
2023-09-08T03:13:52.482Z,99932.59
2023-09-08T03:16:24.878Z,99927.31
2023-09-08T03:18:58.059Z,99933.09
2023-09-08T03:21:27.279Z,99932.69
2023-09-08T03:23:56.502Z,99930.06
2023-09-08T03:26:30.229Z,99930.50
2023-09-08T03:29:06.872Z,99933.63
2023-09-08T03:31:38.010Z,99934.03
2023-09-08T03:34:08.692Z,99929.13
2023-09-08T03:36:41.897Z,99922.94
2023-09-08T03:39:13.543Z,99928.50
2023-09-08T03:41:44.440Z,99925.81
2023-09-08T03:44:13.354Z,99927.09
2023-09-08T03:46:40.791Z,99922.75
2023-09-08T03:49:10.845Z,99921.53
2023-09-08T03:51:38.958Z,99929.00
2023-09-08T03:54:08.846Z,99930.03
2023-09-08T03:56:36.606Z,99928.59
2023-09-08T03:59:04.409Z,99932.53
2023-09-08T04:01:34.846Z,99934.81
2023-09-08T04:04:02.896Z,99929.88
2023-09-08T04:06:31.788Z,99934.19
2023-09-08T04:09:01.629Z,99927.84
2023-09-08T04:11:29.595Z,99928.72
2023-09-08T04:14:06.818Z,99928.28
2023-09-08T04:16:37.024Z,99935.13
2023-09-08T04:19:07.217Z,99929.81
2023-09-08T04:21:40.406Z,99939.69
2023-09-08T04:24:12.477Z,99936.19
2023-09-08T04:26:47.662Z,99943.41
2023-09-08T04:29:18.322Z,99952.88
2023-09-08T04:31:54.825Z,99948.13
2023-09-08T04:34:27.163Z,99949.97
2023-09-08T04:36:56.585Z,99953.47
2023-09-08T04:39:26.945Z,99946.84
2023-09-08T04:41:55.197Z,99948.06
2023-09-08T04:44:27.362Z,99952.78
2023-09-08T04:46:59.857Z,99952.97
2023-09-08T04:49:33.003Z,99950.47
2023-09-08T04:52:01.238Z,99961.75
2023-09-08T04:54:32.041Z,99963.97
2023-09-08T04:57:11.727Z,99958.75
2023-09-08T04:59:51.070Z,99965.50
2023-09-08T05:02:21.828Z,99963.16
2023-09-08T05:04:55.851Z,99964.53
2023-09-08T05:07:30.967Z,99960.13
2023-09-08T05:10:03.951Z,99959.41
2023-09-08T05:12:39.037Z,99962.84
2023-09-08T05:15:20.056Z,99958.81
2023-09-08T05:17:56.698Z,99964.91
2023-09-08T05:20:28.841Z,99973.63
2023-09-08T05:22:59.972Z,99968.78
2023-09-08T05:25:34.229Z,99973.44
2023-09-08T05:28:17.772Z,99973.94
2023-09-08T05:30:58.537Z,99971.56
2023-09-08T05:33:36.540Z,99971.97
2023-09-08T05:36:09.357Z,99971.13
2023-09-08T05:38:37.406Z,99970.75
2023-09-08T05:41:07.580Z,99984.41
2023-09-08T05:43:37.796Z,99970.88
2023-09-08T05:46:26.964Z,99976.78
2023-09-08T05:57:32.986Z,99986.56
2023-09-08T06:04:45.426Z,99980.91
2023-09-08T06:07:15.523Z,99981.19
2023-09-08T06:09:45.018Z,99978.19
2023-09-08T06:12:12.624Z,99982.34
2023-09-08T06:14:41.993Z,99979.09
2023-09-08T06:17:11.704Z,99978.03
2023-09-08T06:19:40.359Z,99981.00
2023-09-08T06:22:09.239Z,99978.78
2023-09-08T06:24:44.183Z,99979.81
2023-09-08T06:27:14.047Z,99970.28
2023-09-08T06:29:44.981Z,99972.88
2023-09-08T06:32:16.661Z,99972.28
2023-09-08T06:34:49.164Z,99977.59
2023-09-08T06:37:19.319Z,99964.22
2023-09-08T06:39:46.368Z,99963.28
2023-09-08T06:42:13.139Z,99964.25
2023-09-08T06:44:49.190Z,99956.78
2023-09-08T06:47:24.592Z,99960.44
2023-09-08T06:49:54.018Z,99957.56
2023-09-08T06:52:25.982Z,99957.13
2023-09-08T06:54:53.272Z,99958.88
2023-09-08T06:57:28.688Z,99954.84
2023-09-08T07:00:00.274Z,99962.81
2023-09-08T07:02:34.934Z,99968.59
2023-09-08T07:05:10.008Z,99957.28
2023-09-08T07:07:38.716Z,99958.44
2023-09-08T07:10:06.079Z,99963.44
2023-09-08T07:12:42.718Z,99962.41
2023-09-08T07:15:11.075Z,99962.75
2023-09-08T07:17:39.000Z,99952.47
2023-09-08T07:20:11.467Z,99961.72
2023-09-08T07:22:39.775Z,99959.03
2023-09-08T07:25:11.134Z,99953.91
2023-09-08T07:27:40.340Z,99949.88
2023-09-08T07:30:11.977Z,99956.44
2023-09-08T07:32:44.171Z,99941.50
2023-09-08T07:35:15.745Z,99944.78
2023-09-08T07:37:50.184Z,99945.03
2023-09-08T07:40:18.556Z,99945.00
2023-09-08T07:42:50.020Z,99945.81
2023-09-08T07:45:17.400Z,99948.78
2023-09-08T07:47:53.798Z,99947.13
2023-09-08T07:50:33.634Z,99946.78
2023-09-08T07:53:01.021Z,99947.28
2023-09-08T07:55:28.699Z,99939.59
2023-09-08T07:57:57.414Z,99943.63
2023-09-08T08:00:24.220Z,99941.34
2023-09-08T08:02:53.060Z,99940.41
2023-09-08T08:05:25.415Z,99938.66
2023-09-08T08:07:54.015Z,99941.28
2023-09-08T08:10:21.245Z,99933.22
2023-09-08T08:12:49.445Z,99933.59
2023-09-08T08:15:17.059Z,99933.63
2023-09-08T08:17:46.626Z,99923.00
2023-09-08T08:20:18.687Z,99930.69
2023-09-08T08:22:51.324Z,99918.97
2023-09-08T08:25:27.783Z,99924.44
2023-09-08T08:28:09.346Z,99911.78
2023-09-08T08:30:37.206Z,99921.63
2023-09-08T08:33:15.624Z,99920.03
2023-09-08T08:35:51.422Z,99908.03
2023-09-08T08:38:21.428Z,99911.91
2023-09-08T08:40:54.510Z,99905.63
2023-09-08T08:43:24.149Z,99904.09
2023-09-08T08:45:54.258Z,99903.88
2023-09-08T08:48:26.475Z,99904.81
2023-09-08T08:50:59.583Z,99903.78
2023-09-08T08:53:35.550Z,99891.59
2023-09-08T08:56:09.757Z,99895.03
2023-09-08T08:58:40.936Z,99899.09
2023-09-08T09:01:11.085Z,99897.16
2023-09-08T09:03:42.286Z,99900.81
2023-09-08T09:06:14.785Z,99892.66
2023-09-08T09:08:44.605Z,99894.53
2023-09-08T09:11:13.268Z,99885.56
2023-09-08T09:13:43.161Z,99883.31
2023-09-08T09:16:11.915Z,99880.94
2023-09-08T09:19:10.700Z,99878.72
2023-09-08T09:21:45.185Z,99886.41
2023-09-08T09:24:25.004Z,99887.84
2023-09-08T09:26:55.843Z,99884.16
2023-09-08T09:29:25.870Z,99881.16
2023-09-08T09:31:54.919Z,99875.72
2023-09-08T09:34:23.683Z,99876.28
2023-09-08T09:36:51.772Z,99879.06
2023-09-08T09:39:24.101Z,99871.16
2023-09-08T09:42:02.090Z,99874.03
2023-09-08T09:44:33.556Z,99867.47
2023-09-08T09:47:07.895Z,99867.66
2023-09-08T09:49:50.834Z,99871.38
2023-09-08T09:52:28.568Z,99860.41
2023-09-08T09:54:58.026Z,99862.34
2023-09-08T09:57:27.157Z,99853.31
2023-09-08T10:00:01.130Z,99853.50
2023-09-08T10:02:32.007Z,99861.47
2023-09-08T10:05:13.232Z,99849.50
2023-09-08T10:07:44.018Z,99850.78
2023-09-08T10:10:16.843Z,99855.31
2023-09-08T10:12:48.477Z,99849.50
2023-09-08T10:15:21.659Z,99845.47
2023-09-08T10:17:54.600Z,99840.28
2023-09-08T10:20:26.808Z,99842.53
2023-09-08T10:23:27.423Z,99835.56
2023-09-08T10:26:00.972Z,99842.84
2023-09-08T10:28:36.059Z,99835.25
2023-09-08T10:31:05.142Z,99834.47
2023-09-08T10:33:33.636Z,99836.09
2023-09-08T10:36:09.325Z,99842.53
2023-09-08T10:38:39.550Z,99838.84
2023-09-08T10:41:21.517Z,99837.34
2023-09-08T10:44:07.648Z,99826.50
2023-09-08T10:46:38.541Z,99826.50
2023-09-08T10:49:08.825Z,99833.63
2023-09-08T10:51:48.676Z,99824.84
2023-09-08T10:54:50.579Z,99822.25
2023-09-08T10:57:22.615Z,99826.13
2023-09-08T11:00:02.534Z,99822.03
2023-09-08T11:02:44.564Z,99821.91
2023-09-08T11:05:15.563Z,99820.91
2023-09-08T11:07:59.451Z,99818.31
2023-09-08T11:10:26.835Z,99809.84
2023-09-08T11:12:58.659Z,99807.47
2023-09-08T11:15:28.957Z,99814.25
2023-09-08T11:17:59.252Z,99807.56
2023-09-08T11:20:41.018Z,99812.09
2023-09-08T11:25:51.595Z,99812.75
2023-09-08T11:28:21.181Z,99806.09
2023-09-08T11:30:49.992Z,99813.50
2023-09-08T11:33:27.866Z,99809.56
2023-09-08T11:35:59.236Z,99803.38
2023-09-08T11:38:29.003Z,99797.09
2023-09-08T11:41:08.180Z,99802.34
2023-09-08T11:43:40.432Z,99794.41
2023-09-08T11:46:13.584Z,99793.88
2023-09-08T11:48:49.484Z,99793.00
2023-09-08T11:51:19.073Z,99794.03
2023-09-08T11:53:49.323Z,99795.16
2023-09-08T11:56:21.668Z,99785.88
2023-09-08T11:58:50.047Z,99790.34
2023-09-08T12:01:23.642Z,99779.50
2023-09-08T12:04:00.430Z,99792.09
2023-09-08T12:06:29.882Z,99778.72
2023-09-08T12:08:58.270Z,99781.81
2023-09-08T12:14:12.878Z,99768.94
2023-09-08T12:16:48.106Z,99767.81
2023-09-08T12:19:38.875Z,99767.59
2023-09-08T12:22:09.593Z,99759.44
2023-09-08T12:24:52.240Z,99765.75
2023-09-08T12:27:24.325Z,99756.25
2023-09-08T12:30:11.437Z,99757.72
2023-09-08T12:32:44.321Z,99755.16
2023-09-08T12:35:12.856Z,99749.13
2023-09-08T12:37:42.933Z,99750.66
2023-09-08T12:40:13.134Z,99740.78
2023-09-08T12:42:45.358Z,99736.19
2023-09-08T12:45:57.975Z,99734.06
2023-09-08T12:48:26.862Z,99733.47
2023-09-08T12:50:57.820Z,99722.25
2023-09-08T12:53:35.160Z,99722.66
2023-09-08T12:56:03.082Z,99715.69
2023-09-08T12:58:40.032Z,99718.75
2023-09-08T13:01:11.547Z,99710.81
2023-09-08T13:03:42.651Z,99717.22
2023-09-08T13:06:18.485Z,99712.78
2023-09-08T13:08:48.883Z,99709.97
2023-09-08T13:11:16.253Z,99712.41
2023-09-08T13:13:43.337Z,99715.88
2023-09-08T13:16:20.380Z,99713.06
2023-09-08T13:18:51.298Z,99709.53
2023-09-08T13:21:25.374Z,99717.13
2023-09-08T13:23:53.065Z,99701.91
2023-09-08T13:26:21.264Z,99706.41
2023-09-08T13:28:50.632Z,99703.53
2023-09-08T13:31:18.683Z,99702.41
2023-09-08T13:33:47.550Z,99694.81
2023-09-08T13:36:14.913Z,99701.94
2023-09-08T13:38:44.876Z,99699.78
2023-09-08T13:41:14.085Z,99698.97
2023-09-08T13:43:43.579Z,99697.56
2023-09-08T13:46:15.815Z,99705.53
2023-09-08T13:48:50.412Z,99695.72
2023-09-08T13:51:42.427Z,99692.63
2023-09-08T13:54:19.014Z,99697.56
2023-09-08T13:57:13.464Z,99687.34
2023-09-08T13:59:43.630Z,99683.88
2023-09-08T14:07:18.427Z,99685.63
2023-09-08T14:10:06.109Z,99680.78
2023-09-08T14:12:47.038Z,99680.78
2023-09-08T14:15:16.937Z,99672.72
2023-09-08T14:17:46.577Z,99666.28
2023-09-08T14:20:18.098Z,99681.13
2023-09-08T14:23:10.304Z,99665.81
2023-09-08T14:25:40.944Z,99665.72
2023-09-08T14:28:08.921Z,99661.66
2023-09-08T14:30:53.475Z,99666.16
2023-09-08T14:33:23.033Z,99658.25
2023-09-08T14:35:57.881Z,99655.47
2023-09-08T14:38:26.387Z,99660.16
2023-09-08T14:40:58.715Z,99656.59
2023-09-08T14:43:30.535Z,99658.06
2023-09-08T14:46:04.668Z,99655.56
2023-09-08T14:48:34.451Z,99661.34
2023-09-08T14:51:08.387Z,99662.09
2023-09-08T14:53:35.969Z,99664.53
2023-09-08T14:56:12.258Z,99660.56
2023-09-08T14:58:39.554Z,99656.88
2023-09-08T15:01:09.779Z,99647.94
2023-09-08T15:03:38.739Z,99658.28
2023-09-08T15:06:05.934Z,99655.75
2023-09-08T15:08:35.533Z,99648.59
2023-09-08T15:11:04.960Z,99653.53
2023-09-08T15:13:38.818Z,99656.63
2023-09-08T15:16:07.949Z,99656.03
2023-09-08T15:18:40.479Z,99644.88
2023-09-08T15:21:09.524Z,99642.47
2023-09-08T15:23:38.025Z,99648.31
2023-09-08T15:26:05.566Z,99645.97
2023-09-08T15:28:36.359Z,99652.38
2023-09-08T15:31:04.838Z,99653.16
2023-09-08T15:33:35.413Z,99655.00
2023-09-08T15:36:03.680Z,99642.66
2023-09-08T15:38:33.504Z,99644.81
2023-09-08T15:41:08.630Z,99646.28
2023-09-08T15:43:43.275Z,99639.69
2023-09-08T15:46:23.602Z,99634.59
2023-09-08T15:48:55.548Z,99637.56
2023-09-08T15:51:27.025Z,99638.09
2023-09-08T15:53:58.079Z,99631.00
2023-09-08T15:56:26.467Z,99637.09
2023-09-08T15:58:53.520Z,99636.69
2023-09-08T16:01:21.938Z,99643.03
2023-09-08T16:03:53.994Z,99641.97
2023-09-08T16:06:33.424Z,99634.91
2023-09-08T16:09:04.673Z,99637.81
2023-09-08T16:11:35.261Z,99637.53
2023-09-08T16:14:08.229Z,99642.44
2023-09-08T16:16:42.208Z,99640.84
2023-09-08T16:19:12.166Z,99628.59
2023-09-08T16:21:43.649Z,99632.97
2023-09-08T16:24:19.846Z,99630.38
2023-09-08T16:26:50.598Z,99632.69
2023-09-08T16:29:21.778Z,99631.72
2023-09-08T16:31:56.906Z,99631.72
2023-09-08T16:34:25.190Z,99628.16
2023-09-08T16:36:54.367Z,99635.59
2023-09-08T16:39:27.290Z,99636.53
2023-09-08T16:42:04.442Z,99633.59
2023-09-08T16:44:35.340Z,99643.72
2023-09-08T16:47:03.853Z,99637.72
2023-09-08T16:49:36.177Z,99643.13
2023-09-08T16:52:06.107Z,99635.38
2023-09-08T16:54:36.864Z,99634.84
2023-09-08T16:57:11.232Z,99635.25
2023-09-08T16:59:45.376Z,99637.59
2023-09-08T17:02:16.336Z,99631.81
2023-09-08T17:04:45.949Z,99631.75
2023-09-08T17:07:16.960Z,99634.56
2023-09-08T17:09:47.876Z,99632.19
2023-09-08T17:12:27.397Z,99630.91
2023-09-08T17:14:57.024Z,99634.59
2023-09-08T17:17:30.592Z,99639.25
2023-09-08T17:20:00.829Z,99634.63
2023-09-08T17:22:28.437Z,99630.81
2023-09-08T17:25:01.160Z,99642.06
2023-09-08T17:27:29.142Z,99639.84
2023-09-08T17:30:00.472Z,99643.13
2023-09-08T17:32:28.440Z,99646.97
2023-09-08T17:34:57.007Z,99645.56
2023-09-08T17:37:34.273Z,99643.81
2023-09-08T17:40:03.112Z,99651.09
2023-09-08T17:42:30.396Z,99659.75
2023-09-08T17:45:01.562Z,99659.09
2023-09-08T17:47:31.192Z,99660.44
2023-09-08T17:50:00.042Z,99664.66
2023-09-08T17:52:29.337Z,99662.81
2023-09-08T17:55:04.262Z,99658.59
2023-09-08T17:57:39.995Z,99665.63
2023-09-08T18:00:12.793Z,99663.84
2023-09-08T18:02:46.089Z,99664.78
2023-09-08T18:05:14.684Z,99673.28
2023-09-08T18:07:46.781Z,99672.63
2023-09-08T18:10:17.502Z,99671.13
2023-09-08T18:12:45.373Z,99678.81
2023-09-08T18:15:13.086Z,99681.91
2023-09-08T18:17:45.888Z,99672.97
2023-09-08T18:20:16.708Z,99676.91
2023-09-08T18:22:48.331Z,99678.59
2023-09-08T18:25:37.874Z,99687.69
2023-09-08T18:28:10.204Z,99688.34
2023-09-08T18:30:40.141Z,99687.34
2023-09-08T18:33:13.239Z,99685.78
2023-09-08T18:35:42.953Z,99691.84
2023-09-08T18:38:13.133Z,99691.66
2023-09-08T18:40:50.306Z,99694.19
2023-09-08T18:43:21.255Z,99693.41
2023-09-08T18:45:48.740Z,99694.84
2023-09-08T18:48:21.375Z,99687.22
2023-09-08T18:50:49.693Z,99691.31
2023-09-08T18:53:20.419Z,99691.09
2023-09-08T18:55:51.194Z,99696.56
2023-09-08T18:58:19.414Z,99691.38
2023-09-08T19:00:47.077Z,99695.50
2023-09-08T19:03:20.204Z,99695.50
2023-09-08T19:05:50.731Z,99694.72
2023-09-08T19:08:19.225Z,99695.56
2023-09-08T19:10:47.987Z,99698.56
2023-09-08T19:13:17.515Z,99693.69
2023-09-08T19:15:53.805Z,99699.97
2023-09-08T19:18:22.347Z,99689.97
2023-09-08T19:20:54.754Z,99697.34
2023-09-08T19:23:23.233Z,99691.94
2023-09-08T19:25:51.454Z,99692.25
2023-09-08T19:28:23.887Z,99695.78
2023-09-08T19:30:57.905Z,99695.25
2023-09-08T19:33:30.741Z,99698.53
2023-09-08T19:36:00.978Z,99704.50
2023-09-08T19:38:34.056Z,99709.41
2023-09-08T19:41:05.573Z,99709.66
2023-09-08T19:43:32.820Z,99697.97
2023-09-08T19:46:08.288Z,99699.31
2023-09-08T19:48:37.210Z,99698.22
2023-09-08T19:51:08.028Z,99696.91
2023-09-08T19:53:36.019Z,99703.72
2023-09-08T19:56:04.162Z,99696.63
2023-09-08T19:58:34.586Z,99700.44
2023-09-08T20:01:05.963Z,99692.53
2023-09-08T20:03:37.686Z,99692.03
2023-09-08T20:06:11.427Z,99698.81
2023-09-08T20:08:45.492Z,99695.28
2023-09-08T20:11:13.753Z,99705.38
2023-09-08T20:13:44.066Z,99705.34
2023-09-08T20:16:13.572Z,99694.75
2023-09-08T20:18:41.305Z,99699.69
2023-09-08T20:21:19.843Z,99699.69
2023-09-08T20:23:49.174Z,99708.09
2023-09-08T20:26:20.525Z,99700.22
2023-09-08T20:28:55.668Z,99702.69
2023-09-08T20:31:25.181Z,99703.25
2023-09-08T20:33:53.466Z,99702.16
2023-09-08T20:36:22.216Z,99701.34
2023-09-08T20:38:52.663Z,99706.50
2023-09-08T20:41:22.709Z,99706.50
2023-09-08T20:43:52.894Z,99711.13
2023-09-08T20:46:23.680Z,99712.19
2023-09-08T20:48:53.483Z,99710.59
2023-09-08T20:51:24.259Z,99708.38
2023-09-08T20:53:51.701Z,99713.00
2023-09-08T20:56:19.394Z,99717.59
2023-09-08T20:58:48.484Z,99713.78
2023-09-08T21:01:21.325Z,99708.84
2023-09-08T21:03:50.025Z,99713.97
2023-09-08T21:06:21.263Z,99710.41
2023-09-08T21:08:56.666Z,99715.50
2023-09-08T21:11:34.162Z,99715.19
2023-09-08T21:14:02.098Z,99711.53
2023-09-08T21:16:30.598Z,99709.84
2023-09-08T21:18:59.234Z,99713.84
2023-09-08T21:21:43.777Z,99713.47
2023-09-08T21:24:17.638Z,99706.38
2023-09-08T21:26:48.833Z,99714.75
2023-09-08T21:29:21.402Z,99714.09
2023-09-08T21:32:01.455Z,99710.25
2023-09-08T21:34:32.817Z,99712.31
2023-09-08T21:37:03.002Z,99714.72
2023-09-08T21:39:34.104Z,99713.59
2023-09-08T21:42:04.311Z,99719.47
2023-09-08T21:44:32.689Z,99716.38
2023-09-08T21:47:05.391Z,99717.41
2023-09-08T21:49:38.344Z,99717.28
2023-09-08T21:52:16.160Z,99713.69
2023-09-08T21:54:53.484Z,99711.13
2023-09-08T21:57:25.331Z,99711.34
2023-09-08T21:59:58.484Z,99708.00
2023-09-08T22:02:26.366Z,99710.63
2023-09-08T22:05:00.751Z,99707.56
2023-09-08T22:07:28.693Z,99699.91
2023-09-08T22:10:04.277Z,99704.72
2023-09-08T22:12:32.564Z,99711.47
2023-09-08T22:15:01.491Z,99711.09
2023-09-08T22:17:30.405Z,99710.19
2023-09-08T22:19:58.379Z,99701.19
2023-09-08T22:22:29.342Z,99698.16
2023-09-08T22:24:56.460Z,99696.22
2023-09-08T22:27:32.262Z,99695.09
2023-09-08T22:30:08.188Z,99689.69
2023-09-08T22:32:40.471Z,99684.53
2023-09-08T22:35:08.028Z,99688.56
2023-09-08T22:37:39.392Z,99684.13
2023-09-08T22:40:10.423Z,99685.44
2023-09-08T22:42:40.577Z,99681.06
2023-09-08T22:45:12.166Z,99693.97
2023-09-08T22:47:41.169Z,99692.59
2023-09-08T22:50:12.402Z,99688.41
2023-09-08T22:52:44.589Z,99688.91
2023-09-08T22:55:24.206Z,99689.66
2023-09-08T22:57:54.174Z,99685.25
2023-09-08T23:00:25.624Z,99688.69
2023-09-08T23:02:54.362Z,99689.19
2023-09-08T23:05:29.575Z,99676.16
2023-09-08T23:08:03.728Z,99684.53
2023-09-08T23:10:31.990Z,99688.78
2023-09-08T23:13:09.123Z,99679.19
2023-09-08T23:15:41.965Z,99682.94
2023-09-08T23:18:11.115Z,99682.63
2023-09-08T23:20:50.989Z,99677.25
2023-09-08T23:23:22.089Z,99677.16
2023-09-08T23:25:54.680Z,99681.66
2023-09-08T23:28:27.775Z,99685.56
2023-09-08T23:31:00.213Z,99686.53
2023-09-08T23:33:29.790Z,99685.38
2023-09-08T23:35:58.078Z,99682.31
2023-09-08T23:38:34.451Z,99676.59
2023-09-08T23:41:01.983Z,99676.28
2023-09-08T23:43:31.947Z,99670.53
2023-09-08T23:46:00.724Z,99669.72
2023-09-08T23:48:29.796Z,99674.53
2023-09-08T23:50:58.893Z,99675.59
2023-09-08T23:53:31.560Z,99676.66
2023-09-08T23:55:59.080Z,99673.63
2023-09-08T23:58:31.854Z,99673.06
